• Join FlightAware (Why Join?)
  • Login
  • US Flag 
11:31AM EDT


 

Airport Tracker/Info


-or-


 

Live Flight TrackerFlight Track Log ✈ CEY501 ✈ 26-Nov-2013 ✈ TJSJ / SJU - SVMI / CCS

Flight Track Log - Related Links

Times and Time Zones

All times are in EST time to prevent confusion due to time zone crossing. See the CEY501 flight status page for this flight to view local times or setup timezone preferences in your user account.

Time Position Orientation Groundspeed Altitude Reporting Facility
EST Latitude Longitude Course Direction KTS MPH feet Rate Location/Type
10:39AM 18.4500 -65.9667 317° Northwest 130 150 900  Level San Juan Center
10:40AM 18.4833 -66.0000 317° Northwest 170 196 2,200 1,380 Climbing San Juan Center
10:41AM 18.4667 -66.0333 242° Southwest 170 196 3,700 1,380 Climbing San Juan Center
10:42AM 18.4167 -66.0500 198° South 170 196 5,000 1,200 Climbing San Juan Center
10:43AM 18.3667 -66.0667 198° South 170 196 6,200 1,140 Climbing San Juan Center
10:44AM 18.3333 -66.1000 224° Southwest 190 219 7,300 960 Climbing San Juan Center
10:45AM 18.2833 -66.1167 198° South 190 219 8,200 900 Climbing San Juan Center
10:46AM 18.2333 -66.1167 180° South 190 219 9,200 900 Climbing San Juan Center
10:47AM 18.1667 -66.1333 193° South 200 230 10,000 780 Climbing San Juan Center
10:48AM 18.1167 -66.1500 198° South 200 230 10,800 780 Climbing San Juan Center
10:49AM 18.0667 -66.1667 198° South 200 230 11,600 660 Climbing San Juan Center
10:50AM 18.0167 -66.1667 180° South 190 219 12,200 600 Climbing San Juan Center
10:51AM 17.9667 -66.1833 198° South 210 242 12,900 600 Climbing San Juan Center
10:52AM 17.9000 -66.1833 180° South 200 230 13,500 600 Climbing San Juan Center
10:53AM 17.8500 -66.2000 198° South 210 242 14,200 600 Climbing San Juan Center
10:54AM 17.8000 -66.2000 180° South 210 242 14,700 360 Climbing San Juan Center
10:55AM 17.7333 -66.2167 193° South 210 242 15,000 360 Climbing San Juan Center
10:56AM 17.6667 -66.2167 180° South 220 253 15,500 540 Climbing San Juan Center
10:57AM 17.6167 -66.2333 198° South 210 242 16,100 540 Climbing San Juan Center
10:58AM 17.5500 -66.2333 180° South 210 242 16,600 480 Climbing San Juan Center
10:59AM 17.5000 -66.2500 198° South 210 242 17,100 420 Climbing San Juan Center
11:00AM 17.4333 -66.2500 180° South 200 230 17,500 420 Climbing San Juan Center
11:01AM 17.3833 -66.2667 198° South 210 242 18,000 240 Climbing San Juan Center
11:02AM 17.3167 -66.2833 193° South 210 242 18,000  Level San Juan Center
11:03AM 17.2667 -66.2833 180° South 240 276 18,000  Level San Juan Center
11:04AM 17.2000 -66.3000 193° South 250 288 18,000  Level San Juan Center
11:05AM 17.1333 -66.3167 193° South 230 265 18,000  Level San Juan Center
11:06AM 17.0667 -66.3333 193° South 240 276 18,000  Level San Juan Center
11:08AM 16.9784 -66.3518 191° South  Level FlightAware Approximate
11:15AM 16.6151 -66.4276 191° South  Level FlightAware Approximate
11:16AM 16.5632 -66.4384 191° South  Level FlightAware Approximate
11:17AM 16.5113 -66.4492 191° South  Level FlightAware Approximate
11:18AM 16.4594 -66.4600 191° South  Level FlightAware Approximate
11:32AM 15.7062 -66.6064 185° South  Level FlightAware Approximate
11:33AM 15.6515 -66.6110 185° South  Level FlightAware Approximate
11:34AM 15.5968 -66.6155 185° South  Level FlightAware Approximate
11:35AM 15.5457 -66.6333 180° South  Level FlightAware Approximate
11:36AM 15.4908 -66.6347 182° South  Level FlightAware Approximate
11:37AM 15.4360 -66.6363 182° South  Level FlightAware Approximate
11:38AM 15.3812 -66.6380 182° South  Level FlightAware Approximate
11:39AM 15.3263 -66.6397 182° South  Level FlightAware Approximate
11:40AM 15.2715 -66.6414 182° South  Level FlightAware Approximate
11:41AM 15.2167 -66.6431 182° South  Level FlightAware Approximate
11:42AM 15.1618 -66.6448 182° South  Level FlightAware Approximate
11:43AM 15.1070 -66.6465 182° South  Level FlightAware Approximate
11:44AM 15.0522 -66.6482 182° South  Level FlightAware Approximate
11:45AM 14.9974 -66.6499 182° South  Level FlightAware Approximate
11:46AM 14.9425 -66.6516 182° South  Level FlightAware Approximate
11:47AM 14.8877 -66.6532 182° South  Level FlightAware Approximate
11:48AM 14.8329 -66.6549 182° South  Level FlightAware Approximate
11:49AM 14.7780 -66.6566 182° South  Level FlightAware Approximate
11:50AM 14.7232 -66.6583 182° South  Level FlightAware Approximate
11:51AM 14.6684 -66.6600 182° South  Level FlightAware Approximate
11:52AM 14.6136 -66.6617 182° South  Level FlightAware Approximate
11:53AM 14.5587 -66.6633 182° South  Level FlightAware Approximate
11:54AM 14.5039 -66.6650 182° South  Level FlightAware Approximate
11:55AM 14.4490 -66.6667 180° South  Level FlightAware Approximate
11:56AM 14.3942 -66.6667 180° South  Level FlightAware Approximate
11:57AM 14.3393 -66.6667 180° South  Level FlightAware Approximate
11:58AM 14.2845 -66.6667 180° South  Level FlightAware Approximate
11:59AM 14.2296 -66.6667 180° South  Level FlightAware Approximate
12:00PM 14.1748 -66.6667 180° South  Level FlightAware Approximate
12:01PM 14.1200 -66.6667 180° South  Level FlightAware Approximate
12:02PM 14.0651 -66.6667 180° South  Level FlightAware Approximate
12:03PM 14.0103 -66.6667 180° South  Level FlightAware Approximate
12:04PM 13.9554 -66.6667 180° South  Level FlightAware Approximate
12:05PM 13.9005 -66.6667 180° South  Level FlightAware Approximate
12:06PM 13.8457 -66.6667 180° South  Level FlightAware Approximate
12:07PM 13.7908 -66.6667 180° South  Level FlightAware Approximate
12:08PM 13.7360 -66.6667 180° South  Level FlightAware Approximate
12:09PM 13.6812 -66.6667 180° South  Level FlightAware Approximate
12:10PM 13.6263 -66.6667 180° South  Level FlightAware Approximate
12:11PM 13.5715 -66.6667 180° South  Level FlightAware Approximate
12:12PM 13.5166 -66.6667 180° South  Level FlightAware Approximate
12:13PM 13.4618 -66.6667 180° South  Level FlightAware Approximate
12:14PM 13.4069 -66.6667 180° South  Level FlightAware Approximate
12:15PM 13.3520 -66.6667 180° South  Level FlightAware Approximate
12:16PM 13.2972 -66.6667 180° South  Level FlightAware Approximate
12:17PM 13.2423 -66.6667 180° South  Level FlightAware Approximate
12:18PM 13.1875 -66.6667 180° South  Level FlightAware Approximate
12:19PM 13.1327 -66.6667 180° South  Level FlightAware Approximate
12:20PM 13.0778 -66.6667 180° South  Level FlightAware Approximate
12:21PM 13.0230 -66.6667 180° South  Level FlightAware Approximate
12:22PM 12.9681 -66.6667 180° South  Level FlightAware Approximate
12:23PM 12.9132 -66.6667 180° South  Level FlightAware Approximate
12:24PM 12.8584 -66.6667 180° South  Level FlightAware Approximate
12:25PM 12.8035 -66.6667 180° South  Level FlightAware Approximate
12:26PM 12.7487 -66.6667 180° South  Level FlightAware Approximate
12:27PM 12.6938 -66.6667 180° South  Level FlightAware Approximate
12:28PM 12.6390 -66.6667 180° South  Level FlightAware Approximate
12:29PM 12.5842 -66.6667 180° South  Level FlightAware Approximate
12:30PM 12.5293 -66.6667 180° South  Level FlightAware Approximate
12:31PM 12.4745 -66.6667 180° South  Level FlightAware Approximate
12:32PM 12.4196 -66.6667 180° South  Level FlightAware Approximate
12:33PM 12.3647 -66.6667 180° South  Level FlightAware Approximate
12:34PM 12.3099 -66.6667 180° South  Level FlightAware Approximate
12:35PM 12.2550 -66.6667 180° South  Level FlightAware Approximate
12:36PM 12.2002 -66.6667 180° South  Level FlightAware Approximate
12:37PM 12.1454 -66.6667 180° South  Level FlightAware Approximate
12:38PM 12.0905 -66.6667 180° South  Level FlightAware Approximate
12:39PM 12.0357 -66.6667 180° South  Level FlightAware Approximate
12:40PM 11.9808 -66.6667 180° South  Level FlightAware Approximate
12:41PM 11.9259 -66.6685 194° South  Level FlightAware Approximate
12:42PM 11.8727 -66.6818 194° South  Level FlightAware Approximate
12:43PM 11.8194 -66.6952 194° South  Level FlightAware Approximate
12:44PM 11.7661 -66.7085 194° South  Level FlightAware Approximate
12:45PM 11.7128 -66.7218 194° South  Level FlightAware Approximate
12:46PM 11.6595 -66.7349 192° South  Level FlightAware Approximate
12:47PM 11.6059 -66.7468 192° South  Level FlightAware Approximate
12:48PM 11.5523 -66.7588 192° South  Level FlightAware Approximate
12:49PM 11.4987 -66.7707 192° South  Level FlightAware Approximate
12:50PM 11.4451 -66.7826 192° South  Level FlightAware Approximate
12:51PM 11.3915 -66.7945 192° South  Level FlightAware Approximate
12:52PM 11.3378 -66.8058 191° South  Level FlightAware Approximate
12:53PM 11.2839 -66.8166 191° South  Level FlightAware Approximate
12:54PM 11.2301 -66.8273 191° South  Level FlightAware Approximate
12:55PM 11.1767 -66.8400 196° South  Level FlightAware Approximate
12:56PM 11.1239 -66.8551 196° South  Level FlightAware Approximate
12:57PM 11.0709 -66.8692 191° South  Level FlightAware Approximate
12:58PM 11.0170 -66.8799 191° South  Level FlightAware Approximate
12:59PM 10.9639 -66.8936 196° South  Level FlightAware Approximate
01:00PM 10.9111 -66.9087 196° South  Level FlightAware Approximate
01:01PM 10.8573 -66.9167 180° South  Level FlightAware Approximate
01:02PM 10.8191 -66.9362 191° South  Level FlightAware Approximate
01:03PM 10.7653 -66.9470 191° South  Level FlightAware Approximate
01:04PM 10.7114 -66.9577 191° South  Level FlightAware Approximate
01:05PM 10.6577 -66.9689 194° South  Level FlightAware Approximate
01:06PM 10.6044 -66.9822 194° South  Level FlightAware Approximate
01:07PM 10.6031 -66.9906 90° East  Level Estimated
01:08PM 10.6031 -66.9906 90° East  Level Estimated
01:09PM 10.6031 -66.9906 90° East  Level Estimated
01:10PM 10.6031 -66.9906 90° East  Level Estimated
01:11PM 10.6031 -66.9906 90° East  Level Estimated
01:12PM 10.6031 -66.9906 90° East  Level Estimated
01:13PM 10.6031 -66.9906 90° East  Level Estimated
01:14PM 10.6031 -66.9906 90° East  Level Estimated
01:15PM 10.6031 -66.9906 90° East  Level Estimated
01:16PM 10.6031 -66.9906 90° East  Level Estimated
01:17PM 10.6031 -66.9906 90° East  Level Estimated
01:18PM 10.6031 -66.9906 90° East  Level Estimated
01:19PM 10.6031 -66.9906 90° East  Level Estimated